createdAt,value
2022-10-17T00:00:26.886Z,28.40
2022-10-17T00:03:18.921Z,26.50
2022-10-17T00:05:49.199Z,26.10
2022-10-17T00:08:19.316Z,26.10
2022-10-17T00:11:05.727Z,26.50
2022-10-17T00:13:35.229Z,26.30
2022-10-17T00:16:06.021Z,26.10
2022-10-17T00:18:35.277Z,27.60
2022-10-17T00:21:06.606Z,26.70
2022-10-17T00:23:35.659Z,28.30
2022-10-17T00:26:06.395Z,28.20
2022-10-17T00:28:35.403Z,29.30
2022-10-17T00:31:10.172Z,29.00
2022-10-17T00:33:39.644Z,34.90
2022-10-17T00:36:15.963Z,38.60
2022-10-17T00:38:48.307Z,37.10
2022-10-17T00:41:23.142Z,42.60
2022-10-17T00:44:18.626Z,38.90
2022-10-17T00:46:47.478Z,36.60
2022-10-17T00:49:16.301Z,32.50
2022-10-17T00:51:54.232Z,30.30
2022-10-17T00:54:30.487Z,29.90
2022-10-17T00:57:00.551Z,30.50
2022-10-17T00:59:37.080Z,28.80
2022-10-17T01:02:13.673Z,29.50
2022-10-17T01:04:50.976Z,28.30
2022-10-17T01:07:20.115Z,30.60
2022-10-17T01:09:52.729Z,29.30
2022-10-17T01:12:57.739Z,29.50
2022-10-17T01:15:45.172Z,29.40
2022-10-17T01:18:35.998Z,30.00
2022-10-17T01:21:10.501Z,30.50
2022-10-17T01:24:07.555Z,29.70
2022-10-17T01:27:05.924Z,30.70
2022-10-17T01:29:54.071Z,31.70
2022-10-17T01:32:46.978Z,31.30
2022-10-17T01:35:56.111Z,30.10
2022-10-17T01:38:48.880Z,32.30
2022-10-17T01:41:32.362Z,30.60
2022-10-17T01:44:35.543Z,30.60
2022-10-17T01:47:17.500Z,31.80
2022-10-17T01:50:01.076Z,34.40
2022-10-17T01:52:56.080Z,32.90
2022-10-17T01:55:35.199Z,32.30
2022-10-17T01:58:12.729Z,32.20
2022-10-17T02:00:45.471Z,31.00
2022-10-17T02:03:23.497Z,32.90
2022-10-17T02:05:52.754Z,32.50
2022-10-17T02:08:40.453Z,31.50
2022-10-17T02:11:21.793Z,31.70
2022-10-17T02:14:33.244Z,32.30
2022-10-17T02:17:44.997Z,33.90
2022-10-17T02:20:53.461Z,33.40
2022-10-17T02:24:03.943Z,33.70
2022-10-17T02:26:52.710Z,31.70
2022-10-17T02:29:35.053Z,33.30
2022-10-17T02:35:01.779Z,34.70
2022-10-17T02:37:35.045Z,33.80
2022-10-17T02:40:08.975Z,34.50
2022-10-17T02:42:46.488Z,34.00
2022-10-17T02:45:28.025Z,34.40
2022-10-17T02:48:09.717Z,35.10
2022-10-17T02:51:19.462Z,33.00
2022-10-17T02:54:06.275Z,35.00
2022-10-17T02:56:43.963Z,34.10
2022-10-17T02:59:16.210Z,34.50
2022-10-17T03:01:45.485Z,34.30
2022-10-17T03:04:27.371Z,34.60
2022-10-17T03:09:29.123Z,35.60
2022-10-17T03:11:59.366Z,35.20
2022-10-17T03:14:37.971Z,35.70
2022-10-17T03:17:07.212Z,36.80
2022-10-17T03:19:38.396Z,34.80
2022-10-17T03:22:11.861Z,36.70
2022-10-17T03:24:45.569Z,36.20
2022-10-17T03:27:17.165Z,36.90
2022-10-17T03:29:53.352Z,35.20
2022-10-17T03:32:31.379Z,35.20
2022-10-17T03:35:56.820Z,35.60
2022-10-17T03:38:37.029Z,36.40
2022-10-17T03:41:07.576Z,36.60
2022-10-17T03:43:40.182Z,37.50
2022-10-17T03:46:12.913Z,33.90
2022-10-17T03:48:54.051Z,36.30
2022-10-17T03:51:28.673Z,38.50
2022-10-17T03:54:10.716Z,34.80
2022-10-17T03:56:47.058Z,35.90
2022-10-17T03:59:29.551Z,36.20
2022-10-17T04:02:14.208Z,38.20
2022-10-17T04:04:46.882Z,38.20
2022-10-17T04:10:14.106Z,38.50
2022-10-17T04:13:00.867Z,37.70
2022-10-17T04:16:18.439Z,35.20
2022-10-17T04:19:04.026Z,37.00
2022-10-17T04:21:42.826Z,36.80
2022-10-17T04:24:44.923Z,36.50
2022-10-17T04:27:55.180Z,35.80
2022-10-17T04:30:54.096Z,36.80
2022-10-17T04:33:57.172Z,34.40
2022-10-17T04:36:47.158Z,34.30
2022-10-17T04:39:32.730Z,35.60
2022-10-17T04:42:29.588Z,38.20
2022-10-17T04:45:06.421Z,35.70
2022-10-17T04:47:41.247Z,35.80
2022-10-17T04:50:12.494Z,37.40
2022-10-17T04:52:47.903Z,36.60
2022-10-17T04:55:25.957Z,36.50
2022-10-17T04:58:06.875Z,34.50
2022-10-17T05:00:47.581Z,37.40
2022-10-17T05:03:42.938Z,36.80
2022-10-17T05:06:25.338Z,35.40
2022-10-17T05:09:54.588Z,37.70
2022-10-17T05:15:33.852Z,36.20
2022-10-17T05:18:19.654Z,36.60
2022-10-17T05:24:09.730Z,34.80
2022-10-17T05:26:46.025Z,36.80
2022-10-17T05:29:20.510Z,37.10
2022-10-17T05:35:07.061Z,37.30
2022-10-17T05:37:44.245Z,36.90
2022-10-17T05:40:52.970Z,36.70
2022-10-17T05:43:40.931Z,36.90
2022-10-17T05:46:35.202Z,36.80
2022-10-17T05:49:44.954Z,36.70
2022-10-17T05:53:11.385Z,38.30
2022-10-17T05:56:14.857Z,38.80
2022-10-17T05:59:04.478Z,35.80
2022-10-17T06:02:17.659Z,35.70
2022-10-17T06:05:15.583Z,35.20
2022-10-17T06:07:58.282Z,35.50
2022-10-17T06:11:09.132Z,34.40
2022-10-17T06:14:03.937Z,38.20
2022-10-17T06:16:44.663Z,39.60
2022-10-17T06:19:28.020Z,38.20
2022-10-17T06:22:16.847Z,40.30
2022-10-17T06:25:03.239Z,35.10
2022-10-17T06:33:26.619Z,38.30
2022-10-17T06:34:39.589Z,36.60
2022-10-17T06:37:39.863Z,33.80
2022-10-17T06:40:24.025Z,35.30
2022-10-17T06:43:25.588Z,34.10
2022-10-17T06:46:59.686Z,31.80
2022-10-17T06:49:34.574Z,30.20
2022-10-17T06:52:32.943Z,32.90
2022-10-17T06:58:11.583Z,30.00
2022-10-17T07:01:00.858Z,29.90
2022-10-17T07:02:45.197Z,28.30
2022-10-17T07:05:35.835Z,30.40
2022-10-17T07:08:14.909Z,30.00
2022-10-17T07:11:05.335Z,30.40
2022-10-17T07:17:16.307Z,30.30
2022-10-17T07:19:48.825Z,27.60
2022-10-17T07:22:46.279Z,27.50
2022-10-17T07:26:10.741Z,27.00
2022-10-17T07:29:00.399Z,25.60
2022-10-17T07:31:53.524Z,26.40
2022-10-17T07:34:33.009Z,26.10
2022-10-17T07:37:22.994Z,25.90
2022-10-17T07:40:11.183Z,25.30
2022-10-17T07:43:23.370Z,24.60
2022-10-17T07:46:08.629Z,24.00
2022-10-17T07:48:58.885Z,23.60
2022-10-17T07:51:36.519Z,26.40
2022-10-17T07:54:08.311Z,24.80
2022-10-17T07:56:37.603Z,24.50
2022-10-17T07:59:09.311Z,23.50
2022-10-17T08:01:40.046Z,23.40
2022-10-17T08:07:11.300Z,22.50
2022-10-17T08:09:54.741Z,23.50
2022-10-17T08:12:25.343Z,22.80
2022-10-17T08:15:05.068Z,21.40
2022-10-17T08:17:41.824Z,23.70
2022-10-17T08:20:19.997Z,22.20
2022-10-17T08:23:09.267Z,22.00
2022-10-17T08:25:43.229Z,22.90
2022-10-17T08:28:23.283Z,21.80
2022-10-17T08:31:09.779Z,23.50
2022-10-17T08:33:45.118Z,23.70
2022-10-17T08:36:31.477Z,21.90
2022-10-17T08:39:03.767Z,26.80
2022-10-17T08:41:40.234Z,23.00
2022-10-17T08:44:39.563Z,22.00
2022-10-17T08:47:33.066Z,21.90
2022-10-17T08:50:38.348Z,22.50
2022-10-17T08:53:19.469Z,24.00
2022-10-17T08:55:52.450Z,22.80
2022-10-17T08:58:38.645Z,23.70
2022-10-17T09:01:44.134Z,22.30
2022-10-17T09:04:40.062Z,24.10
2022-10-17T09:08:02.632Z,21.60
2022-10-17T09:11:30.579Z,23.30
2022-10-17T09:15:03.270Z,22.80
2022-10-17T09:18:14.294Z,20.50
2022-10-17T09:21:13.462Z,21.70
2022-10-17T09:23:59.530Z,22.10
2022-10-17T09:26:40.545Z,22.40
2022-10-17T09:29:24.646Z,22.40
2022-10-17T09:32:04.775Z,23.30
2022-10-17T09:34:33.690Z,21.60
2022-10-17T09:37:03.144Z,22.00
2022-10-17T09:39:33.204Z,21.40
2022-10-17T09:42:03.271Z,22.50
2022-10-17T09:45:12.919Z,20.50
2022-10-17T09:50:27.835Z,21.40
2022-10-17T09:53:02.326Z,21.30
2022-10-17T09:55:49.694Z,21.40
2022-10-17T09:58:20.652Z,22.50
2022-10-17T10:00:53.834Z,21.70
2022-10-17T10:03:29.867Z,20.30
2022-10-17T10:06:05.257Z,21.30
2022-10-17T10:08:58.929Z,23.00
2022-10-17T10:12:20.862Z,20.20
2022-10-17T10:14:55.531Z,21.30
2022-10-17T10:17:35.849Z,20.60
2022-10-17T10:20:30.172Z,20.00
2022-10-17T10:23:17.881Z,21.10
2022-10-17T10:26:02.945Z,22.10
2022-10-17T10:28:36.879Z,20.00
2022-10-17T10:31:09.602Z,19.60
2022-10-17T10:33:46.983Z,20.30
2022-10-17T10:36:21.984Z,19.00
2022-10-17T10:39:01.234Z,20.90
2022-10-17T10:41:48.384Z,19.20
2022-10-17T10:44:26.181Z,19.60
2022-10-17T10:47:33.109Z,19.30
2022-10-17T10:50:24.867Z,21.00
2022-10-17T10:53:26.888Z,20.10
2022-10-17T10:56:31.797Z,19.10
2022-10-17T10:59:14.547Z,25.90
2022-10-17T11:02:03.836Z,20.20
2022-10-17T11:04:52.762Z,18.80
2022-10-17T11:07:53.047Z,18.90
2022-10-17T11:10:55.424Z,17.10
2022-10-17T11:13:31.796Z,21.10
2022-10-17T11:16:23.538Z,19.70
2022-10-17T11:19:23.934Z,17.20
2022-10-17T11:22:26.658Z,17.40
2022-10-17T11:25:24.911Z,16.10
2022-10-17T11:27:54.442Z,15.40
2022-10-17T11:30:27.665Z,17.30
2022-10-17T11:33:01.257Z,16.90
2022-10-17T11:35:39.216Z,16.40
2022-10-17T11:38:45.972Z,16.80
2022-10-17T11:41:26.892Z,17.10
2022-10-17T11:44:32.663Z,15.60
2022-10-17T11:47:43.204Z,16.70
2022-10-17T11:54:09.360Z,16.40
2022-10-17T11:56:54.289Z,17.20
2022-10-17T12:00:10.027Z,17.10
2022-10-17T12:03:05.154Z,16.60
2022-10-17T12:05:56.389Z,15.60
2022-10-17T12:08:39.584Z,15.60
2022-10-17T12:11:46.911Z,15.40
2022-10-17T12:14:37.472Z,16.00
2022-10-17T12:17:40.599Z,16.80
2022-10-17T12:20:21.850Z,16.60
2022-10-17T12:22:52.179Z,15.90
2022-10-17T12:25:31.539Z,17.00
2022-10-17T12:28:22.871Z,16.50
2022-10-17T12:30:57.398Z,17.50
2022-10-17T12:33:48.447Z,14.30
2022-10-17T12:36:19.660Z,15.50
2022-10-17T12:39:01.760Z,16.60
2022-10-17T12:41:40.264Z,15.80
2022-10-17T12:44:16.655Z,15.00
2022-10-17T12:47:04.199Z,16.20
2022-10-17T12:49:48.811Z,15.10
2022-10-17T12:52:31.721Z,15.60
2022-10-17T12:55:18.309Z,14.60
2022-10-17T12:57:58.767Z,16.50
2022-10-17T13:00:59.536Z,14.20
2022-10-17T13:03:44.501Z,14.10
2022-10-17T13:06:34.545Z,14.20
2022-10-17T13:09:35.537Z,15.50
2022-10-17T13:12:12.660Z,15.70
2022-10-17T13:14:46.735Z,14.60
2022-10-17T13:17:30.904Z,14.00
2022-10-17T13:20:01.928Z,14.20
2022-10-17T13:22:33.466Z,14.50
2022-10-17T13:25:21.977Z,13.60
2022-10-17T13:28:02.992Z,14.80
2022-10-17T13:30:36.277Z,14.30
2022-10-17T13:33:30.528Z,14.20
2022-10-17T13:36:05.282Z,15.50
2022-10-17T13:38:40.293Z,15.10
2022-10-17T13:41:34.936Z,25.60
2022-10-17T13:44:15.238Z,16.40
2022-10-17T13:46:45.290Z,15.00
2022-10-17T13:49:43.315Z,15.70
2022-10-17T13:52:23.591Z,16.60
2022-10-17T13:54:54.562Z,14.90
2022-10-17T13:57:31.158Z,16.70
2022-10-17T14:00:19.902Z,15.60
2022-10-17T14:02:49.233Z,16.90
2022-10-17T14:05:23.384Z,17.10
2022-10-17T14:08:12.447Z,15.70
2022-10-17T14:10:44.760Z,17.10
2022-10-17T14:13:22.027Z,15.80
2022-10-17T14:15:53.020Z,17.80
2022-10-17T14:18:34.880Z,16.80
2022-10-17T14:24:14.152Z,16.80
2022-10-17T14:26:52.518Z,17.40
2022-10-17T14:29:35.148Z,17.70
2022-10-17T14:32:13.906Z,17.20
2022-10-17T14:34:43.096Z,15.80
2022-10-17T14:37:43.925Z,16.20
2022-10-17T14:40:35.416Z,16.60
2022-10-17T14:45:39.382Z,16.80
2022-10-17T14:48:17.875Z,16.70
2022-10-17T14:51:06.868Z,15.80
2022-10-17T14:53:36.981Z,17.20
2022-10-17T14:56:26.876Z,17.10
2022-10-17T14:58:56.123Z,15.70
2022-10-17T15:01:25.351Z,16.80
2022-10-17T15:03:54.640Z,16.80
2022-10-17T15:06:30.619Z,17.30
2022-10-17T15:09:00.385Z,17.40
2022-10-17T15:11:29.628Z,17.30
2022-10-17T15:13:58.863Z,16.60
2022-10-17T15:16:33.293Z,17.30
2022-10-17T15:19:02.548Z,17.40
2022-10-17T15:21:40.570Z,17.80
2022-10-17T15:24:12.457Z,18.60
2022-10-17T15:26:43.921Z,18.20
2022-10-17T15:29:16.525Z,18.80
2022-10-17T15:31:45.732Z,19.30
2022-10-17T15:34:15.087Z,20.10
2022-10-17T15:36:51.957Z,18.90
2022-10-17T15:39:21.203Z,21.10
2022-10-17T15:41:50.460Z,21.00
2022-10-17T15:44:20.872Z,20.80
2022-10-17T15:46:50.222Z,18.70
2022-10-17T15:49:20.289Z,19.20
2022-10-17T15:51:55.454Z,21.00
2022-10-17T15:57:04.441Z,20.80
2022-10-17T16:02:27.299Z,22.30
2022-10-17T16:05:00.081Z,24.20
2022-10-17T16:07:38.021Z,25.50
2022-10-17T16:10:10.540Z,25.30
2022-10-17T16:12:43.314Z,26.40
2022-10-17T16:15:36.880Z,31.50
2022-10-17T16:18:17.213Z,31.20
2022-10-17T16:20:58.159Z,34.90
2022-10-17T16:23:27.947Z,37.60
2022-10-17T16:25:59.461Z,36.50
2022-10-17T16:28:31.040Z,33.50
2022-10-17T16:31:01.938Z,35.80
2022-10-17T16:33:34.684Z,45.80
2022-10-17T16:36:07.947Z,41.70
2022-10-17T16:38:40.944Z,47.10
2022-10-17T16:41:34.281Z,44.40
2022-10-17T16:44:19.794Z,42.70
2022-10-17T16:46:52.057Z,41.00
2022-10-17T16:49:21.452Z,50.00
2022-10-17T16:51:50.617Z,40.60
2022-10-17T16:54:22.537Z,46.90
2022-10-17T16:56:51.699Z,38.90
2022-10-17T16:59:21.101Z,37.40
2022-10-17T17:01:59.248Z,32.70
2022-10-17T17:04:31.349Z,30.00
2022-10-17T17:07:05.690Z,30.40
2022-10-17T17:09:40.243Z,28.60
2022-10-17T17:12:34.611Z,28.20
2022-10-17T17:15:08.222Z,26.70
2022-10-17T17:17:50.613Z,25.50
2022-10-17T17:20:31.142Z,23.60
2022-10-17T17:23:04.862Z,23.80
2022-10-17T17:25:45.522Z,22.80
2022-10-17T17:28:19.426Z,24.60
2022-10-17T17:31:02.122Z,20.50
2022-10-17T17:33:46.255Z,20.80
2022-10-17T17:36:22.127Z,20.00
2022-10-17T17:39:17.238Z,18.80
2022-10-17T17:45:39.086Z,18.20
2022-10-17T17:48:22.623Z,18.30
2022-10-17T17:51:09.142Z,17.30
2022-10-17T17:53:52.078Z,17.80
2022-10-17T17:56:33.274Z,15.80
2022-10-17T17:59:03.286Z,27.00
2022-10-17T18:01:41.459Z,27.80
2022-10-17T18:04:26.616Z,16.80
2022-10-17T18:07:00.596Z,17.80
2022-10-17T18:09:32.389Z,14.70
2022-10-17T18:12:01.693Z,15.70
2022-10-17T18:14:30.985Z,14.40
2022-10-17T18:17:14.926Z,14.80
2022-10-17T18:19:49.700Z,15.50
2022-10-17T18:22:21.468Z,15.30
2022-10-17T18:24:59.306Z,15.90
2022-10-17T18:27:51.759Z,16.50
2022-10-17T18:31:10.761Z,16.40
2022-10-17T18:34:08.810Z,16.70
2022-10-17T18:36:46.943Z,17.60
2022-10-17T18:39:41.502Z,28.80
2022-10-17T18:42:30.584Z,17.30
2022-10-17T18:45:11.728Z,16.90
2022-10-17T18:47:55.886Z,17.20
2022-10-17T18:50:33.363Z,17.30
2022-10-17T18:53:06.677Z,16.10
2022-10-17T18:55:41.736Z,16.40
2022-10-17T18:58:14.020Z,16.80
2022-10-17T19:01:08.092Z,17.20
2022-10-17T19:03:46.015Z,18.00
2022-10-17T19:06:39.539Z,16.10
2022-10-17T19:09:18.797Z,16.10
2022-10-17T19:12:05.099Z,15.50
2022-10-17T19:15:01.240Z,15.70
2022-10-17T19:17:49.077Z,14.80
2022-10-17T19:20:32.209Z,13.40
2022-10-17T19:23:07.805Z,15.20
2022-10-17T19:25:39.923Z,15.10
2022-10-17T19:28:12.690Z,15.10
2022-10-17T19:30:45.954Z,14.50
2022-10-17T19:33:18.964Z,15.20
2022-10-17T19:35:59.811Z,17.70
2022-10-17T19:38:32.999Z,17.50
2022-10-17T19:41:08.384Z,15.50
2022-10-17T19:43:53.116Z,16.10
2022-10-17T19:46:35.277Z,16.50
2022-10-17T19:49:26.995Z,16.00
2022-10-17T19:52:02.130Z,14.80
2022-10-17T19:54:46.297Z,16.70
2022-10-17T19:57:18.188Z,15.60
2022-10-17T20:00:43.999Z,15.00
2022-10-17T20:02:51.897Z,16.70
2022-10-17T20:06:19.144Z,15.60
2022-10-17T20:08:58.313Z,15.00
2022-10-17T20:11:33.354Z,14.00
2022-10-17T20:14:08.152Z,15.00
2022-10-17T20:21:24.023Z,15.60
2022-10-17T20:24:01.015Z,16.10
2022-10-17T20:27:27.643Z,15.50
2022-10-17T20:30:31.098Z,16.10
2022-10-17T20:33:08.374Z,16.20
2022-10-17T20:38:21.713Z,16.30
2022-10-17T20:41:34.041Z,16.30
2022-10-17T20:44:16.984Z,16.40
2022-10-17T20:47:04.500Z,17.30
2022-10-17T20:49:46.078Z,16.80
2022-10-17T20:52:46.598Z,17.80
2022-10-17T20:55:35.478Z,17.80
2022-10-17T20:58:26.966Z,17.30
2022-10-17T21:01:15.580Z,19.70
2022-10-17T21:03:50.170Z,17.70
2022-10-17T21:06:34.621Z,18.10
2022-10-17T21:09:15.310Z,17.40
2022-10-17T21:14:51.744Z,17.80
2022-10-17T21:17:42.894Z,16.50
2022-10-17T21:20:31.914Z,17.80
2022-10-17T21:23:02.529Z,16.50
2022-10-17T21:25:56.878Z,17.50
2022-10-17T21:28:31.547Z,16.50
2022-10-17T21:31:15.089Z,16.80
2022-10-17T21:33:58.360Z,16.60
2022-10-17T21:36:36.423Z,16.40
2022-10-17T21:39:30.176Z,14.90
2022-10-17T21:42:25.977Z,15.20
2022-10-17T21:45:15.852Z,14.80
2022-10-17T21:48:18.901Z,15.90
2022-10-17T21:51:11.985Z,14.30
2022-10-17T21:54:14.680Z,14.10
2022-10-17T21:57:01.436Z,14.80
2022-10-17T21:59:49.175Z,15.00
2022-10-17T22:03:06.983Z,16.40
2022-10-17T22:05:58.251Z,16.00
2022-10-17T22:09:08.132Z,14.70
2022-10-17T22:11:45.426Z,14.90
2022-10-17T22:14:25.016Z,15.90
2022-10-17T22:17:10.433Z,15.70
2022-10-17T22:19:48.835Z,14.40
2022-10-17T22:22:34.175Z,16.00
2022-10-17T22:25:37.929Z,15.50
2022-10-17T22:28:19.001Z,17.00
2022-10-17T22:31:31.720Z,15.70
2022-10-17T22:36:58.665Z,13.90
2022-10-17T22:40:10.384Z,14.70
2022-10-17T22:42:44.269Z,14.90
2022-10-17T22:46:01.556Z,15.20
2022-10-17T22:48:46.407Z,15.90
2022-10-17T22:54:11.698Z,17.20
2022-10-17T22:57:12.336Z,15.90
2022-10-17T22:59:43.299Z,15.90
2022-10-17T23:02:33.576Z,18.60
2022-10-17T23:05:16.850Z,16.60
2022-10-17T23:08:15.441Z,17.60
2022-10-17T23:11:41.645Z,17.20
2022-10-17T23:14:03.339Z,16.90
2022-10-17T23:16:36.892Z,17.80
2022-10-17T23:19:35.574Z,18.30
2022-10-17T23:25:43.639Z,17.80
2022-10-17T23:28:26.416Z,17.70
2022-10-17T23:31:01.891Z,17.20
2022-10-17T23:33:51.511Z,17.60
2022-10-17T23:37:07.348Z,17.70
2022-10-17T23:40:17.410Z,16.70
2022-10-17T23:43:26.666Z,16.80
2022-10-17T23:45:59.395Z,17.60
2022-10-17T23:51:57.075Z,16.50
2022-10-17T23:54:56.118Z,17.30
2022-10-17T23:58:27.523Z,17.00
